Time;durP1;ratioP1;P1;durP2;ratioP2;P2;SDS_P1;SDS_P2;PMS_P1;PMS_P2;Temp;Humidity;BMP_temperature;BMP_pressure;BME280_temperature;BME280_humidity;BME280_pressure;Samples;Min_cycle;Max_cycle;Signal;HPM_P1;HPM_P2
2021/05/04 00:02:11;;;;;;;8.77;6.80;;;16.80;49.10;;;;;;5040230;28;20474;-61
2021/05/04 00:04:36;;;;;;;8.93;6.93;;;16.80;49.10;;;;;;5056194;28;20644;-61
2021/05/04 00:07:02;;;;;;;8.10;7.15;;;16.80;49.20;;;;;;5049263;28;20044;-61
2021/05/04 00:09:28;;;;;;;9.27;6.88;;;16.70;48.80;;;;;;5066341;28;20116;-61
2021/05/04 00:11:53;;;;;;;8.25;6.50;;;16.70;48.90;;;;;;5036642;28;20037;-61
2021/05/04 00:14:20;;;;;;;10.02;6.32;;;16.70;48.90;;;;;;5046341;28;20398;-61
2021/05/04 00:16:46;;;;;;;10.82;6.90;;;16.70;49.10;;;;;;5058846;28;20041;-61
2021/05/04 00:19:11;;;;;;;10.32;7.40;;;16.70;49.00;;;;;;5062540;28;20037;-61
2021/05/04 00:21:37;;;;;;;9.20;6.43;;;16.60;49.10;;;;;;5064366;28;20044;-61
2021/05/04 00:24:04;;;;;;;7.97;6.72;;;16.60;49.20;;;;;;5045022;28;20090;-60
2021/05/04 00:26:31;;;;;;;8.48;7.57;;;16.60;49.20;;;;;;5052695;28;20029;-61
2021/05/04 00:28:56;;;;;;;11.82;7.25;;;16.60;49.10;;;;;;5047398;28;20041;-60
2021/05/04 00:31:22;;;;;;;12.93;7.68;;;16.60;49.20;;;;;;5050344;28;20052;-60
2021/05/04 00:33:48;;;;;;;11.60;7.88;;;16.60;49.20;;;;;;5060681;28;20040;-60
2021/05/04 00:36:13;;;;;;;9.45;6.97;;;16.60;49.00;;;;;;5056369;28;20127;-61
2021/05/04 00:38:39;;;;;;;9.85;7.22;;;16.50;49.20;;;;;;5038908;28;20040;-60
2021/05/04 00:41:05;;;;;;;9.77;7.32;;;16.50;49.20;;;;;;5067654;28;20064;-61
2021/05/04 00:43:32;;;;;;;9.07;7.20;;;16.50;49.20;;;;;;5062071;28;20139;-61
2021/05/04 00:45:59;;;;;;;8.27;6.82;;;16.40;49.50;;;;;;5052522;28;20179;-61
2021/05/04 00:48:26;;;;;;;8.73;7.32;;;16.40;49.30;;;;;;5035509;28;20053;-60
2021/05/04 00:50:51;;;;;;;8.70;7.18;;;16.40;49.40;;;;;;5059818;28;20125;-61
2021/05/04 00:53:17;;;;;;;10.02;7.22;;;16.40;49.60;;;;;;5061113;28;20076;-61
2021/05/04 00:55:43;;;;;;;9.95;6.75;;;16.40;49.90;;;;;;5046993;28;20114;-61
2021/05/04 00:58:12;;;;;;;9.98;6.13;;;16.30;50.30;;;;;;5054181;28;20037;-61
2021/05/04 01:00:38;;;;;;;6.93;6.03;;;16.30;50.80;;;;;;5050648;28;20041;-61
2021/05/04 01:03:06;;;;;;;8.98;6.38;;;16.30;50.80;;;;;;5052284;28;20040;-61
2021/05/04 01:05:32;;;;;;;9.43;5.75;;;16.30;51.00;;;;;;5044942;28;20450;-61
2021/05/04 01:07:58;;;;;;;10.43;5.93;;;16.30;51.50;;;;;;5050259;28;20482;-61
2021/05/04 01:10:24;;;;;;;10.25;5.35;;;16.30;51.70;;;;;;5058969;28;20105;-60
2021/05/04 01:12:50;;;;;;;7.93;5.90;;;16.30;52.00;;;;;;5046943;28;20042;-61
2021/05/04 01:15:15;;;;;;;8.30;5.85;;;16.30;52.20;;;;;;5050096;28;20532;-61
2021/05/04 01:17:41;;;;;;;9.15;5.88;;;16.20;52.40;;;;;;5040894;28;20402;-61
2021/05/04 01:20:08;;;;;;;8.88;5.70;;;16.20;52.50;;;;;;5046010;28;20121;-61
2021/05/04 01:22:33;;;;;;;8.68;5.68;;;16.30;52.30;;;;;;5053134;28;20094;-61
2021/05/04 01:24:59;;;;;;;9.32;6.45;;;16.20;52.50;;;;;;5048613;28;20052;-61
2021/05/04 01:27:25;;;;;;;10.77;6.63;;;16.20;52.50;;;;;;5048167;28;20087;-61
2021/05/04 01:29:51;;;;;;;9.43;6.28;;;16.10;52.70;;;;;;5059355;28;20033;-61
2021/05/04 01:32:17;;;;;;;9.20;6.03;;;16.10;52.80;;;;;;5057021;28;20044;-61
2021/05/04 01:34:43;;;;;;;9.40;6.47;;;16.10;52.80;;;;;;5047535;28;20041;-61
2021/05/04 01:37:09;;;;;;;8.10;5.22;;;16.10;53.00;;;;;;5046142;28;20123;-61
2021/05/04 01:39:49;;;;;;;18.27;6.13;;;16.10;53.30;;;;;;5045168;28;20052;-61
2021/05/04 01:42:16;;;;;;;9.13;7.00;;;16.10;53.40;;;;;;5055695;28;20053;-61
2021/05/04 01:44:42;;;;;;;8.20;6.72;;;16.00;53.10;;;;;;5047951;28;20037;-61
2021/05/04 01:47:08;;;;;;;9.95;7.13;;;16.00;53.10;;;;;;5045444;28;20033;-61
2021/05/04 01:49:34;;;;;;;12.10;7.97;;;16.00;52.90;;;;;;5048900;28;20048;-61
2021/05/04 01:52:02;;;;;;;11.88;7.82;;;16.00;52.70;;;;;;5049224;28;20049;-61
2021/05/04 01:54:28;;;;;;;8.43;7.38;;;15.90;52.40;;;;;;5045695;28;20065;-61
2021/05/04 01:56:56;;;;;;;7.85;6.95;;;15.90;52.50;;;;;;5051480;28;20056;-61
2021/05/04 01:59:22;;;;;;;8.10;6.53;;;15.90;52.00;;;;;;5050576;28;20040;-60
2021/05/04 02:01:48;;;;;;;10.32;6.20;;;16.00;51.60;;;;;;5042549;28;20047;-61
2021/05/04 02:04:14;;;;;;;6.38;5.78;;;16.00;51.60;;;;;;5046476;28;20453;-60
2021/05/04 02:06:41;;;;;;;11.32;6.10;;;15.90;51.50;;;;;;5049967;28;20041;-61
2021/05/04 02:09:08;;;;;;;6.93;5.82;;;15.80;51.40;;;;;;5046228;28;20086;-61
2021/05/04 02:11:34;;;;;;;7.50;5.28;;;15.90;51.10;;;;;;5042587;28;20508;-61
2021/05/04 02:14:00;;;;;;;7.43;4.28;;;15.80;50.60;;;;;;5045098;28;20110;-61
2021/05/04 02:16:27;;;;;;;9.32;4.57;;;15.70;49.50;;;;;;5049032;28;20044;-61
2021/05/04 02:18:53;;;;;;;7.18;4.53;;;15.80;49.80;;;;;;5041985;28;20049;-61
2021/05/04 02:21:18;;;;;;;9.40;4.78;;;15.80;49.60;;;;;;5051733;28;20106;-61
2021/05/04 02:23:45;;;;;;;4.85;3.88;;;15.80;49.70;;;;;;5057228;28;20487;-60
2021/05/04 02:26:12;;;;;;;5.55;4.22;;;15.70;49.70;;;;;;5063618;28;20406;-60
2021/05/04 02:28:38;;;;;;;5.82;4.22;;;15.80;49.50;;;;;;5057821;28;20029;-61
2021/05/04 02:31:05;;;;;;;5.15;3.53;;;15.80;49.30;;;;;;5065510;28;20032;-61
2021/05/04 02:33:31;;;;;;;7.88;3.55;;;15.70;49.50;;;;;;5049047;28;20481;-61
2021/05/04 02:35:59;;;;;;;5.00;3.80;;;15.60;48.70;;;;;;5052970;28;20059;-61
2021/05/04 02:38:25;;;;;;;7.82;3.80;;;15.70;49.30;;;;;;5046971;28;20123;-61
2021/05/04 02:40:51;;;;;;;8.27;3.95;;;15.70;49.30;;;;;;5066148;28;20045;-61
2021/05/04 02:43:17;;;;;;;6.63;3.70;;;15.60;49.70;;;;;;5059904;28;20051;-61
2021/05/04 02:45:43;;;;;;;9.68;4.30;;;15.60;50.00;;;;;;5062724;28;20040;-62
2021/05/04 02:48:08;;;;;;;5.53;3.90;;;15.60;50.10;;;;;;5055149;28;20047;-61
2021/05/04 02:50:34;;;;;;;5.78;3.25;;;15.50;50.20;;;;;;5048040;28;20124;-61
2021/05/04 02:53:00;;;;;;;8.30;3.80;;;15.50;50.60;;;;;;5050110;28;20403;-61
2021/05/04 02:55:26;;;;;;;9.00;3.42;;;15.50;50.80;;;;;;5053819;28;20090;-61
2021/05/04 02:57:51;;;;;;;5.32;3.25;;;15.40;50.60;;;;;;5043777;28;20133;-61
2021/05/04 03:00:19;;;;;;;4.90;3.33;;;15.50;50.60;;;;;;5041836;28;20066;-61
2021/05/04 03:02:45;;;;;;;8.18;4.15;;;15.50;50.10;;;;;;5047820;28;20135;-61
2021/05/04 03:05:11;;;;;;;5.13;3.33;;;15.40;50.00;;;;;;5046144;28;20121;-61
2021/05/04 03:07:37;;;;;;;7.75;3.15;;;15.40;50.50;;;;;;5053850;28;20041;-61
2021/05/04 03:10:03;;;;;;;6.80;3.38;;;15.40;50.60;;;;;;5049673;28;20041;-61
2021/05/04 03:12:29;;;;;;;5.28;2.97;;;15.40;50.50;;;;;;5045937;28;20040;-61
2021/05/04 03:14:55;;;;;;;4.97;3.17;;;15.30;50.40;;;;;;5054984;28;20814;-60
2021/05/04 03:17:20;;;;;;;8.20;3.40;;;15.30;50.70;;;;;;5063263;28;20040;-60
2021/05/04 03:19:46;;;;;;;5.53;2.97;;;15.30;50.80;;;;;;5052625;28;20032;-60
2021/05/04 03:22:12;;;;;;;6.90;3.30;;;15.30;50.30;;;;;;5043679;28;20045;-60
2021/05/04 03:24:37;;;;;;;8.20;3.22;;;15.30;50.20;;;;;;5044580;28;20040;-60
2021/05/04 03:27:03;;;;;;;4.28;3.10;;;15.30;50.60;;;;;;5043715;28;20061;-60
2021/05/04 03:29:28;;;;;;;5.97;2.95;;;15.30;50.50;;;;;;5049103;28;20094;-60
2021/05/04 03:31:54;;;;;;;4.85;2.90;;;15.20;50.40;;;;;;5040879;28;20087;-60
2021/05/04 03:34:20;;;;;;;4.38;2.88;;;15.20;50.50;;;;;;5063182;28;20037;-61
2021/05/04 03:36:46;;;;;;;5.38;2.85;;;15.20;50.20;;;;;;5061382;28;20371;-60
2021/05/04 03:39:11;;;;;;;4.68;2.70;;;15.20;50.00;;;;;;5043380;28;20490;-60
2021/05/04 03:41:37;;;;;;;4.35;2.50;;;15.20;49.80;;;;;;5046304;28;20037;-60
2021/05/04 03:44:03;;;;;;;6.15;2.85;;;15.10;49.80;;;;;;5058911;28;20729;-59
2021/05/04 03:46:29;;;;;;;4.30;2.88;;;15.10;49.80;;;;;;5055388;28;20029;-61
2021/05/04 03:48:54;;;;;;;6.20;2.97;;;15.10;49.80;;;;;;5051905;28;20029;-61
2021/05/04 03:51:20;;;;;;;6.22;2.95;;;15.10;49.70;;;;;;5042667;28;20033;-61
2021/05/04 03:53:46;;;;;;;5.38;2.30;;;15.10;49.80;;;;;;5045393;28;20075;-61
2021/05/04 03:56:11;;;;;;;5.80;2.67;;;15.10;49.70;;;;;;5055879;28;20037;-61
2021/05/04 03:58:37;;;;;;;5.57;2.72;;;15.10;49.70;;;;;;5046235;28;20090;-61
2021/05/04 04:01:02;;;;;;;5.10;2.58;;;15.10;49.80;;;;;;5050237;28;20040;-61
2021/05/04 04:03:28;;;;;;;5.53;2.65;;;15.10;50.00;;;;;;5054938;28;20070;-60
2021/05/04 04:05:55;;;;;;;6.68;2.97;;;15.10;50.10;;;;;;5047097;28;20375;-61
2021/05/04 04:08:21;;;;;;;4.78;2.80;;;15.00;50.00;;;;;;5051850;28;20049;-60
2021/05/04 04:10:47;;;;;;;3.55;2.75;;;15.00;50.10;;;;;;5048171;28;20041;-61
2021/05/04 04:13:13;;;;;;;4.10;2.63;;;15.00;50.00;;;;;;5046156;28;20076;-61
2021/05/04 04:15:39;;;;;;;7.95;2.95;;;15.00;50.00;;;;;;5047682;28;20044;-61
2021/05/04 04:18:05;;;;;;;8.02;2.78;;;15.00;49.60;;;;;;5042767;28;20438;-61
2021/05/04 04:20:30;;;;;;;6.43;3.15;;;15.00;50.30;;;;;;5059407;28;20049;-61
2021/05/04 04:22:56;;;;;;;5.20;2.65;;;15.00;49.90;;;;;;5057731;28;20549;-61
2021/05/04 04:25:22;;;;;;;7.32;2.83;;;15.00;49.90;;;;;;5064941;28;20113;-61
2021/05/04 04:27:47;;;;;;;3.88;2.50;;;15.00;49.60;;;;;;5056215;28;20391;-61
2021/05/04 04:30:15;;;;;;;4.50;3.03;;;15.00;49.70;;;;;;5050151;28;20029;-61
2021/05/04 04:32:41;;;;;;;6.80;2.75;;;15.00;49.80;;;;;;5049180;28;20547;-62
2021/05/04 04:35:07;;;;;;;6.78;2.78;;;15.00;49.80;;;;;;5063172;28;20044;-61
2021/05/04 04:37:33;;;;;;;6.25;2.60;;;15.00;49.90;;;;;;5060146;28;20044;-61
2021/05/04 04:39:58;;;;;;;5.45;2.30;;;15.00;50.20;;;;;;5064019;28;20397;-62
2021/05/04 04:42:24;;;;;;;5.75;2.45;;;15.00;50.10;;;;;;5049332;28;20048;-62
2021/05/04 04:44:50;;;;;;;8.13;2.47;;;15.00;50.00;;;;;;5051904;28;20037;-61
2021/05/04 04:47:15;;;;;;;7.82;2.90;;;15.10;49.70;;;;;;5046669;28;20391;-61
2021/05/04 04:49:41;;;;;;;8.10;2.95;;;15.00;49.60;;;;;;5058263;28;20049;-61
2021/05/04 04:52:07;;;;;;;6.55;2.92;;;15.10;49.10;;;;;;5068545;28;20052;-61
2021/05/04 04:54:33;;;;;;;3.63;1.98;;;15.10;49.50;;;;;;5061784;28;20119;-62
2021/05/04 04:56:59;;;;;;;7.13;2.72;;;15.10;49.00;;;;;;5065452;28;20044;-61
2021/05/04 04:59:25;;;;;;;8.20;2.30;;;15.10;48.50;;;;;;5062430;28;20478;-61
2021/05/04 05:01:51;;;;;;;4.40;2.13;;;15.10;48.10;;;;;;5057495;28;20048;-62
2021/05/04 05:04:16;;;;;;;6.05;2.03;;;15.10;47.90;;;;;;5054359;28;20452;-61
2021/05/04 05:06:43;;;;;;;3.13;1.52;;;15.10;47.80;;;;;;5062257;28;20459;-61
2021/05/04 05:09:09;;;;;;;9.57;2.13;;;15.10;47.10;;;;;;5041898;28;20037;-61
2021/05/04 05:11:37;;;;;;;5.45;2.05;;;15.20;47.30;;;;;;5055186;28;20052;-61
2021/05/04 05:14:04;;;;;;;5.97;1.98;;;15.20;47.80;;;;;;5057256;28;20036;-61
2021/05/04 05:16:31;;;;;;;3.95;2.25;;;15.20;47.60;;;;;;5053005;28;20064;-61
2021/05/04 05:18:57;;;;;;;3.35;2.00;;;15.20;47.60;;;;;;5062304;28;20085;-61
2021/05/04 05:21:23;;;;;;;4.32;2.22;;;15.20;47.30;;;;;;5067530;28;20138;-61
2021/05/04 05:23:49;;;;;;;8.90;2.25;;;15.20;46.70;;;;;;5066531;28;20135;-61
2021/05/04 05:26:19;;;;;;;4.82;2.03;;;15.20;46.40;;;;;;5057603;28;20563;-61
2021/05/04 05:28:45;;;;;;;3.90;1.67;;;15.30;46.00;;;;;;5056707;28;20085;-62
2021/05/04 05:31:11;;;;;;;2.08;1.35;;;15.30;45.70;;;;;;5059311;28;20044;-61
2021/05/04 05:33:37;;;;;;;3.28;1.92;;;15.30;45.20;;;;;;5061933;28;20064;-61
2021/05/04 05:36:03;;;;;;;3.08;1.52;;;15.30;45.20;;;;;;5041424;28;20052;-61
2021/05/04 05:38:29;;;;;;;3.53;1.65;;;15.40;45.80;;;;;;5054298;28;20048;-61
2021/05/04 05:40:55;;;;;;;3.50;1.92;;;15.30;45.00;;;;;;5053211;28;20056;-61
2021/05/04 05:43:21;;;;;;;7.13;2.03;;;15.40;45.50;;;;;;5049697;28;20047;-61
2021/05/04 05:45:47;;;;;;;3.90;1.90;;;15.40;45.50;;;;;;5039466;28;20037;-61
2021/05/04 05:48:13;;;;;;;4.25;1.63;;;15.40;45.40;;;;;;5062109;28;20039;-61
2021/05/04 05:50:39;;;;;;;6.47;1.83;;;15.40;43.30;;;;;;5051597;28;20048;-61
2021/05/04 05:53:04;;;;;;;5.50;1.30;;;15.40;43.00;;;;;;5046467;28;20040;-60
2021/05/04 05:55:31;;;;;;;3.40;1.33;;;15.40;42.90;;;;;;5030857;28;20410;-61
2021/05/04 05:57:57;;;;;;;5.82;1.88;;;15.40;43.40;;;;;;5049440;28;20465;-61
2021/05/04 06:00:23;;;;;;;5.18;2.30;;;15.40;44.10;;;;;;5050582;28;20070;-61
2021/05/04 06:02:50;;;;;;;5.63;1.95;;;15.50;42.90;;;;;;5052210;28;20037;-62
2021/05/04 06:05:15;;;;;;;4.88;1.83;;;15.50;44.00;;;;;;5046909;28;20056;-61
2021/05/04 06:07:41;;;;;;;6.47;2.25;;;15.50;43.40;;;;;;5046069;28;20053;-61
2021/05/04 06:10:08;;;;;;;3.05;1.50;;;15.50;43.40;;;;;;5059809;28;20036;-61
2021/05/04 06:12:34;;;;;;;6.05;1.95;;;15.50;43.10;;;;;;5039467;28;20033;-61
2021/05/04 06:15:00;;;;;;;4.90;2.33;;;15.50;43.30;;;;;;5047355;28;20042;-61
2021/05/04 06:17:25;;;;;;;3.88;2.25;;;15.60;43.30;;;;;;5040123;28;20499;-60
2021/05/04 06:19:51;;;;;;;6.35;2.38;;;15.60;43.70;;;;;;5044757;28;20041;-61
2021/05/04 06:22:17;;;;;;;4.68;2.72;;;15.60;43.30;;;;;;5048991;28;20102;-61
2021/05/04 06:24:43;;;;;;;6.07;2.95;;;15.60;43.90;;;;;;5043846;28;20142;-61
2021/05/04 06:27:08;;;;;;;6.10;3.33;;;15.60;43.80;;;;;;5056329;28;20036;-61
2021/05/04 06:29:34;;;;;;;4.25;2.72;;;15.60;43.50;;;;;;5043818;28;20087;-61
2021/05/04 06:32:09;;;;;;;5.63;3.03;;;15.70;43.70;;;;;;5047654;28;20122;-60
2021/05/04 06:34:35;;;;;;;5.45;2.90;;;15.70;44.20;;;;;;5058891;28;20045;-61
2021/05/04 06:37:01;;;;;;;3.45;1.77;;;15.70;44.80;;;;;;5047631;28;20078;-61
2021/05/04 06:39:26;;;;;;;3.47;2.13;;;15.80;42.80;;;;;;5048877;28;20041;-60
2021/05/04 06:41:52;;;;;;;3.90;1.90;;;15.80;41.50;;;;;;5047760;28;20080;-60
2021/05/04 06:44:18;;;;;;;5.03;2.53;;;15.90;42.20;;;;;;5036622;28;20107;-61
2021/05/04 06:46:43;;;;;;;5.82;2.83;;;15.90;42.90;;;;;;5045730;28;20035;-60
2021/05/04 06:49:09;;;;;;;6.47;2.25;;;15.90;42.90;;;;;;5046426;28;20095;-60
2021/05/04 06:51:35;;;;;;;8.63;2.10;;;15.90;42.80;;;;;;5049967;28;20040;-60
2021/05/04 06:54:02;;;;;;;4.63;2.08;;;16.00;42.40;;;;;;5040848;28;20430;-59
2021/05/04 06:56:27;;;;;;;5.47;1.98;;;16.00;40.20;;;;;;5040557;28;20522;-59
2021/05/04 06:58:53;;;;;;;4.72;2.05;;;16.00;41.90;;;;;;5045950;28;20032;-60
2021/05/04 07:01:18;;;;;;;5.25;2.25;;;16.10;42.00;;;;;;5066210;28;20048;-60
2021/05/04 07:03:44;;;;;;;7.35;2.42;;;16.10;41.20;;;;;;5059442;28;20045;-60
2021/05/04 07:06:10;;;;;;;8.90;2.45;;;16.10;41.00;;;;;;5062351;28;20072;-59
2021/05/04 07:08:35;;;;;;;6.50;2.45;;;16.20;40.80;;;;;;5046838;28;20048;-59
2021/05/04 07:11:01;;;;;;;3.75;1.98;;;16.20;40.50;;;;;;5048911;28;20399;-60
2021/05/04 07:13:27;;;;;;;4.32;1.95;;;16.30;40.50;;;;;;5046978;28;20127;-60
2021/05/04 07:15:52;;;;;;;7.85;2.42;;;16.30;39.60;;;;;;5057486;28;20048;-60
2021/05/04 07:18:20;;;;;;;5.88;1.98;;;16.30;38.80;;;;;;5053497;28;20032;-60
2021/05/04 07:20:46;;;;;;;4.32;2.03;;;16.40;39.00;;;;;;5051130;28;20056;-60
2021/05/04 07:23:13;;;;;;;5.47;1.52;;;16.40;39.20;;;;;;5045612;28;20544;-61
2021/05/04 07:25:39;;;;;;;3.10;1.63;;;16.40;37.90;;;;;;5043793;28;20600;-60
2021/05/04 07:28:05;;;;;;;6.50;1.67;;;16.40;37.60;;;;;;5047179;28;20112;-60
2021/05/04 07:30:32;;;;;;;3.97;1.80;;;16.50;37.60;;;;;;5037002;28;20457;-61
2021/05/04 07:33:01;;;;;;;5.65;1.63;;;16.40;36.60;;;;;;5050206;28;20082;-61
2021/05/04 07:35:28;;;;;;;4.18;2.00;;;16.50;35.60;;;;;;5043873;28;20037;-59
2021/05/04 07:37:55;;;;;;;5.57;2.10;;;16.40;35.50;;;;;;5066670;28;20106;-61
2021/05/04 07:40:21;;;;;;;4.80;1.67;;;16.50;36.80;;;;;;5062552;28;20048;-61
2021/05/04 07:42:47;;;;;;;6.65;1.95;;;16.60;36.60;;;;;;5048051;28;20076;-60
2021/05/04 07:45:13;;;;;;;3.58;1.77;;;16.70;37.20;;;;;;5048256;28;20087;-60
2021/05/04 07:47:40;;;;;;;2.10;1.80;;;16.70;35.60;;;;;;5045930;28;20033;-61
2021/05/04 07:50:09;;;;;;;3.08;1.75;;;16.70;36.00;;;;;;5043318;28;20049;-60
2021/05/04 07:52:34;;;;;;;3.78;2.88;;;16.70;35.80;;;;;;5050374;28;20502;-60
2021/05/04 07:55:00;;;;;;;4.00;2.67;;;16.80;36.20;;;;;;5044838;28;20043;-60
2021/05/04 07:57:26;;;;;;;4.95;2.20;;;16.90;36.80;;;;;;5045234;28;20072;-59
2021/05/04 07:59:52;;;;;;;6.50;2.63;;;16.90;36.60;;;;;;5050292;28;20131;-60
2021/05/04 08:02:19;;;;;;;6.78;2.70;;;16.90;36.60;;;;;;5043392;28;20502;-60
2021/05/04 08:04:45;;;;;;;4.65;2.28;;;16.90;37.60;;;;;;5061720;28;20047;-60
2021/05/04 08:07:11;;;;;;;4.15;2.58;;;17.00;36.40;;;;;;5049619;28;20049;-60
2021/05/04 08:09:37;;;;;;;6.47;2.97;;;17.00;36.70;;;;;;5038659;28;20033;-60
2021/05/04 08:12:04;;;;;;;5.57;3.55;;;17.00;36.30;;;;;;5045430;28;20449;-60
2021/05/04 08:14:32;;;;;;;5.78;2.85;;;17.10;36.60;;;;;;5060970;28;20136;-60
2021/05/04 08:16:58;;;;;;;6.70;3.15;;;17.10;37.00;;;;;;5061935;28;20479;-60
2021/05/04 08:19:24;;;;;;;7.05;2.90;;;17.20;37.10;;;;;;5059179;28;20040;-60
2021/05/04 08:21:51;;;;;;;6.88;2.63;;;17.20;36.40;;;;;;5043231;28;20048;-61
2021/05/04 08:24:17;;;;;;;7.60;2.97;;;17.30;36.10;;;;;;5052445;28;20049;-61
2021/05/04 08:26:43;;;;;;;8.18;3.30;;;17.30;36.30;;;;;;5029377;28;20118;-61
2021/05/04 08:29:08;;;;;;;6.30;2.83;;;17.40;37.10;;;;;;5051881;28;20064;-61
2021/05/04 08:31:34;;;;;;;9.10;3.50;;;17.50;38.10;;;;;;5063245;28;20035;-62
2021/05/04 08:34:01;;;;;;;8.27;3.50;;;17.50;37.70;;;;;;5068038;28;20486;-60
2021/05/04 08:36:27;;;;;;;7.13;3.92;;;17.60;37.70;;;;;;5048151;28;20124;-60
2021/05/04 08:38:53;;;;;;;5.70;3.30;;;17.60;37.10;;;;;;5052715;28;20049;-61
2021/05/04 08:41:19;;;;;;;5.13;3.17;;;17.60;36.70;;;;;;5064847;28;20041;-61
2021/05/04 08:43:46;;;;;;;8.60;3.00;;;17.60;36.70;;;;;;5044163;28;20029;-61
2021/05/04 08:46:12;;;;;;;8.18;2.83;;;17.60;36.70;;;;;;5052613;28;20039;-60
2021/05/04 08:48:42;;;;;;;4.05;2.70;;;17.70;37.00;;;;;;5052089;28;20132;-60
2021/05/04 08:51:09;;;;;;;4.80;2.78;;;17.70;36.70;;;;;;5049463;28;20080;-60
2021/05/04 08:53:34;;;;;;;6.90;3.25;;;17.70;35.70;;;;;;5048653;28;20036;-60
2021/05/04 08:56:01;;;;;;;6.65;2.90;;;17.80;35.60;;;;;;5048990;28;20083;-60
2021/05/04 08:58:27;;;;;;;5.90;3.10;;;17.90;35.70;;;;;;5054862;28;20045;-60
2021/05/04 09:00:54;;;;;;;6.07;3.08;;;17.90;35.60;;;;;;5053359;28;20068;-60
2021/05/04 09:03:30;;;;;;;6.95;3.08;;;17.90;35.30;;;;;;5058707;28;20037;-60
2021/05/04 09:08:45;;;;;;;3.50;2.10;;;18.10;36.00;;;;;;5049971;28;20124;-60
2021/05/04 09:14:12;;;;;;;5.93;2.20;;;18.10;34.90;;;;;;5056933;28;20093;-62
2021/05/04 09:16:46;;;;;;;5.68;2.30;;;18.20;36.40;;;;;;5065403;28;20072;-62
2021/05/04 09:21:39;;;;;;;4.72;2.42;;;18.20;35.70;;;;;;5053513;28;20128;-62
2021/05/04 09:24:17;;;;;;;4.93;2.00;;;18.30;35.60;;;;;;5034143;28;20047;-62
2021/05/04 09:26:44;;;;;;;10.57;3.10;;;18.40;36.40;;;;;;5060074;28;20040;-62
2021/05/04 09:29:10;;;;;;;6.30;3.20;;;18.40;36.00;;;;;;5041836;28;20049;-62
2021/05/04 09:31:41;;;;;;;6.05;2.80;;;18.60;36.40;;;;;;5050990;28;20040;-62
2021/05/04 09:34:15;;;;;;;5.30;3.00;;;18.60;36.30;;;;;;5056822;28;20159;-62
2021/05/04 09:36:41;;;;;;;5.10;1.95;;;18.60;36.30;;;;;;5030888;28;20045;-62
2021/05/04 09:39:09;;;;;;;6.93;2.75;;;18.60;35.60;;;;;;5039002;28;20040;-61
2021/05/04 09:41:35;;;;;;;5.97;2.50;;;18.60;35.70;;;;;;5050678;28;20044;-61
2021/05/04 09:44:01;;;;;;;4.43;2.78;;;18.70;35.20;;;;;;5048512;28;20045;-62
2021/05/04 09:46:43;;;;;;;5.95;2.67;;;18.60;35.90;;;;;;5047660;28;20111;-61
2021/05/04 09:49:44;;;;;;;4.68;2.15;;;18.80;36.80;;;;;;5060370;28;20048;-62
2021/05/04 09:52:37;;;;;;;6.38;3.50;;;18.80;35.60;;;;;;4921470;28;20075;-62
2021/05/04 09:55:16;;;;;;;5.88;2.70;;;18.80;35.70;;;;;;4994285;28;20128;-63
2021/05/04 09:57:49;;;;;;;8.57;3.60;;;18.80;35.50;;;;;;5051459;28;20041;-63
2021/05/04 10:00:22;;;;;;;8.10;2.88;;;18.90;35.50;;;;;;5043760;28;20079;-62
2021/05/04 10:02:48;;;;;;;6.90;3.65;;;19.00;35.80;;;;;;5035151;28;20113;-61
2021/05/04 10:05:17;;;;;;;5.38;3.53;;;19.00;35.40;;;;;;5031550;28;20487;-62
2021/05/04 10:07:44;;;;;;;4.45;2.95;;;19.10;35.00;;;;;;5031897;28;20107;-61
2021/05/04 10:10:15;;;;;;;4.95;3.05;;;19.10;35.60;;;;;;5039491;28;20083;-62
2021/05/04 10:12:43;;;;;;;6.57;3.30;;;19.20;35.40;;;;;;5046488;28;20136;-60
2021/05/04 10:15:11;;;;;;;6.45;3.47;;;19.20;35.20;;;;;;5065411;28;20067;-60
2021/05/04 10:17:38;;;;;;;5.97;3.38;;;19.40;34.80;;;;;;5057684;28;20467;-60
2021/05/04 10:20:17;;;;;;;5.97;4.47;;;19.40;34.90;;;;;;5049603;28;20055;-61
2021/05/04 10:22:44;;;;;;;6.40;3.95;;;19.40;34.20;;;;;;5043079;28;20113;-61
2021/05/04 10:25:17;;;;;;;6.18;4.15;;;19.50;34.40;;;;;;5043215;28;20040;-61
2021/05/04 10:27:43;;;;;;;7.00;3.28;;;19.70;34.20;;;;;;5035261;28;20041;-61
2021/05/04 10:30:10;;;;;;;6.78;3.42;;;19.60;34.30;;;;;;5043506;28;20120;-61
2021/05/04 10:32:58;;;;;;;5.05;3.05;;;19.70;34.80;;;;;;5046197;28;20032;-61
2021/05/04 10:35:30;;;;;;;5.47;3.10;;;19.90;33.20;;;;;;5032706;28;20112;-61
2021/05/04 10:38:16;;;;;;;7.47;3.45;;;19.90;33.90;;;;;;5048196;28;20064;-61
2021/05/04 10:40:47;;;;;;;5.60;3.72;;;19.90;33.50;;;;;;5020678;28;20574;-61
2021/05/04 10:43:21;;;;;;;5.93;3.63;;;20.00;33.60;;;;;;5050677;28;20045;-61
2021/05/04 10:45:52;;;;;;;6.55;3.85;;;20.10;33.90;;;;;;5051520;28;20041;-61
2021/05/04 10:48:36;;;;;;;5.40;3.17;;;20.20;33.60;;;;;;5057906;28;20045;-61
2021/05/04 10:51:03;;;;;;;5.82;2.83;;;20.20;33.70;;;;;;5060315;28;20040;-61
2021/05/04 10:53:49;;;;;;;7.60;3.20;;;20.30;33.20;;;;;;5058648;28;20043;-60
2021/05/04 10:56:15;;;;;;;5.38;2.90;;;20.50;34.10;;;;;;5055869;28;20386;-61
2021/05/04 10:58:49;;;;;;;4.90;3.50;;;20.60;33.10;;;;;;5055876;28;20448;-61
2021/05/04 11:01:18;;;;;;;5.57;3.60;;;20.80;45.50;;;;;;5034105;28;20052;-61
2021/05/04 11:03:48;;;;;;;5.25;3.40;;;;;;;;;;5045557;28;20052;-61
2021/05/04 11:06:40;;;;;;;6.43;3.70;;;20.80;31.80;;;;;;5053299;28;20033;-61
2021/05/04 11:09:08;;;;;;;5.25;3.33;;;21.00;31.90;;;;;;5005320;28;20048;-61
2021/05/04 11:11:45;;;;;;;6.30;4.13;;;21.00;32.30;;;;;;5045594;28;20029;-61
2021/05/04 11:14:19;;;;;;;5.75;3.80;;;21.20;31.30;;;;;;5047054;28;20026;-61
2021/05/04 11:16:56;;;;;;;;;;;21.50;31.20;;;;;;5058291;28;20047;-62
2021/05/04 11:19:28;;;;;;;7.95;3.60;;;22.20;29.90;;;;;;5036550;28;20419;-62
2021/05/04 11:21:57;;;;;;;11.07;4.15;;;24.00;28.00;;;;;;5048180;28;20498;-62
2021/05/04 11:24:37;;;;;;;4.32;3.92;;;25.50;25.00;;;;;;5043185;28;20390;-62
2021/05/04 11:27:05;;;;;;;6.40;3.20;;;26.50;24.80;;;;;;5051864;28;20037;-62
2021/05/04 11:29:31;;;;;;;6.40;3.28;;;27.10;24.00;;;;;;5050390;28;20058;-61
2021/05/04 11:32:18;;;;;;;4.07;3.17;;;26.70;23.70;;;;;;5052892;28;20135;-62
2021/05/04 11:34:43;;;;;;;4.43;3.20;;;26.90;23.90;;;;;;5026214;28;20101;-62
2021/05/04 11:37:36;;;;;;;9.15;3.60;;;26.10;24.80;;;;;;5040318;28;20037;-62
2021/05/04 11:40:13;;;;;;;5.97;3.38;;;25.70;25.20;;;;;;5045474;28;20088;-62
2021/05/04 11:42:40;;;;;;;6.63;2.97;;;25.30;26.10;;;;;;5048205;28;20068;-61
2021/05/04 11:45:09;;;;;;;4.63;2.88;;;25.20;26.40;;;;;;5036996;28;20040;-61
2021/05/04 11:47:36;;;;;;;6.13;3.03;;;25.40;26.30;;;;;;5056059;28;20044;-61
2021/05/04 11:50:08;;;;;;;6.35;2.97;;;25.70;26.40;;;;;;5027160;28;20041;-62
2021/05/04 11:52:35;;;;;;;5.55;3.35;;;25.60;26.60;;;;;;5046189;28;20406;-61
2021/05/04 11:55:17;;;;;;;6.55;3.20;;;25.20;26.10;;;;;;5050457;28;20135;-62
2021/05/04 11:57:44;;;;;;;4.30;2.38;;;25.40;27.10;;;;;;5067135;28;20071;-62
2021/05/04 12:00:14;;;;;;;4.57;2.45;;;25.70;25.50;;;;;;5064269;28;20462;-62
2021/05/04 12:02:40;;;;;;;4.13;2.00;;;26.10;24.70;;;;;;5063492;28;20461;-61
2021/05/04 12:05:07;;;;;;;6.20;2.75;;;26.10;24.00;;;;;;5043898;28;20045;-61
2021/05/04 12:07:45;;;;;;;5.13;2.67;;;26.20;24.40;;;;;;5061496;28;20039;-61
2021/05/04 12:10:14;;;;;;;2.45;2.00;;;25.70;24.40;;;;;;5045492;28;20037;-60
2021/05/04 12:12:41;;;;;;;3.90;1.95;;;24.80;25.00;;;;;;5047090;28;20032;-63
2021/05/04 12:15:08;;;;;;;2.97;1.70;;;24.30;25.60;;;;;;5041339;28;20061;-61
2021/05/04 12:17:33;;;;;;;4.47;2.28;;;24.10;25.50;;;;;;5055588;28;20029;-61
2021/05/04 12:20:14;;;;;;;3.75;1.40;;;23.90;25.10;;;;;;5073200;28;20057;-62
2021/05/04 12:22:57;;;;;;;7.75;1.50;;;24.20;23.90;;;;;;5045102;28;20072;-62
2021/05/04 12:25:36;;;;;;;3.20;1.67;;;23.80;23.80;;;;;;5040611;28;20470;-63
2021/05/04 12:28:03;;;;;;;2.15;1.50;;;24.40;24.40;;;;;;5062700;28;20045;-62
2021/05/04 12:30:29;;;;;;;3.15;1.60;;;24.70;24.20;;;;;;5044224;28;20104;-61
2021/05/04 12:32:54;;;;;;;3.35;1.35;;;24.90;24.10;;;;;;5062540;28;20033;-62
2021/05/04 12:35:42;;;;;;;1.52;1.42;;;24.90;23.80;;;;;;5035206;28;20471;-61
2021/05/04 12:38:12;;;;;;;3.33;1.35;;;25.50;23.90;;;;;;5029206;28;20043;-61
2021/05/04 12:40:39;;;;;;;4.97;1.55;;;25.70;23.80;;;;;;5047567;28;20057;-61
2021/05/04 12:43:23;;;;;;;6.72;1.90;;;25.30;23.30;;;;;;5039308;28;20037;-61
2021/05/04 12:46:05;;;;;;;3.30;1.40;;;25.50;23.10;;;;;;5048216;28;20517;-61
2021/05/04 12:48:33;;;;;;;2.03;1.83;;;25.50;23.20;;;;;;5044606;28;20044;-60
2021/05/04 12:51:11;;;;;;;4.45;1.70;;;25.60;23.80;;;;;;5060197;28;20037;-61
2021/05/04 12:53:40;;;;;;;2.65;1.65;;;25.20;23.10;;;;;;5004284;28;20380;-61
2021/05/04 12:56:16;;;;;;;2.63;1.85;;;25.80;23.80;;;;;;5049594;28;20037;-61
2021/05/04 12:58:57;;;;;;;2.17;1.80;;;26.30;23.50;;;;;;5046452;28;20029;-61
2021/05/04 13:01:43;;;;;;;6.82;1.95;;;25.60;24.10;;;;;;5037719;28;20076;-61